createdAt,value
2018-06-23T00:03:45.464Z,15.1
2018-06-23T00:08:42.368Z,15
2018-06-23T00:13:39.423Z,15.7
2018-06-23T00:18:36.896Z,15.1
2018-06-23T00:23:34.205Z,15.6
2018-06-23T00:28:31.480Z,15.6
2018-06-23T00:33:28.692Z,15
2018-06-23T00:38:25.906Z,15
2018-06-23T00:43:23.077Z,15.6
2018-06-23T00:48:20.407Z,15.6
2018-06-23T00:53:17.554Z,15
2018-06-23T00:58:14.850Z,15
2018-06-23T01:03:12.013Z,14.9
2018-06-23T01:08:08.932Z,14.9
2018-06-23T01:13:06.068Z,14.9
2018-06-23T01:18:03.667Z,14.8
2018-06-23T01:23:00.679Z,14.7
2018-06-23T01:27:57.998Z,14.5
2018-06-23T01:32:55.082Z,15.3
2018-06-23T01:37:52.349Z,15.3
2018-06-23T01:42:49.571Z,15.2
2018-06-23T01:47:46.748Z,14.3
2018-06-23T01:52:43.914Z,14.5
2018-06-23T01:57:41.335Z,14.5
2018-06-23T02:02:38.635Z,14.5
2018-06-23T02:07:35.808Z,15.1
2018-06-23T02:12:33.144Z,15.1
2018-06-23T02:17:30.272Z,15
2018-06-23T02:22:27.529Z,15
2018-06-23T02:27:24.706Z,14.4
2018-06-23T02:32:21.629Z,14.4
2018-06-23T02:37:18.952Z,14.9
2018-06-23T02:42:16.410Z,14.3
2018-06-23T02:47:13.750Z,14.9
2018-06-23T02:52:10.768Z,14.2
2018-06-23T02:57:08.022Z,14.1
2018-06-23T03:02:05.519Z,14.1
2018-06-23T03:07:02.746Z,14.7
2018-06-23T03:11:59.830Z,14.7
2018-06-23T03:16:57.356Z,14.1
2018-06-23T03:21:54.705Z,14.7
2018-06-23T03:26:51.860Z,13.9
2018-06-23T03:31:48.474Z,14
2018-06-23T03:36:45.976Z,14.6
2018-06-23T03:41:43.260Z,14
2018-06-23T03:46:40.459Z,13.9
2018-06-23T03:51:37.799Z,14.5
2018-06-23T03:56:35.030Z,14.6
2018-06-23T04:01:32.092Z,13.9
2018-06-23T04:06:29.483Z,13.9
2018-06-23T04:11:26.593Z,13.9
2018-06-23T04:16:23.920Z,14.5
2018-06-23T04:21:21.301Z,14.5
2018-06-23T04:26:18.568Z,13.7
2018-06-23T04:31:21.718Z,14.4
2018-06-23T04:36:17.610Z,13.7
2018-06-23T04:41:14.550Z,13.8
2018-06-23T04:46:11.472Z,13.7
2018-06-23T04:51:08.779Z,14.2
2018-06-23T04:56:06.346Z,13.6
2018-06-23T05:01:03.421Z,13.6
2018-06-23T05:06:00.797Z,14.1
2018-06-23T05:10:57.880Z,13.4
2018-06-23T05:15:55.251Z,13.3
2018-06-23T05:20:52.363Z,13.3
2018-06-23T05:25:49.598Z,13.3
2018-06-23T05:30:50.593Z,13.3
2018-06-23T05:35:48.223Z,13.3
2018-06-23T05:40:44.318Z,13.3
2018-06-23T05:45:41.459Z,13.6
2018-06-23T05:50:38.573Z,13.5
2018-06-23T05:55:35.909Z,13.8
2018-06-23T06:00:33.315Z,13.8
2018-06-23T06:05:30.546Z,13.8
2018-06-23T06:10:27.777Z,13.4
2018-06-23T06:15:24.812Z,13.1
2018-06-23T06:20:21.867Z,13.6
2018-06-23T06:25:19.158Z,13.4
2018-06-23T06:30:22.446Z,12.9
2018-06-23T06:35:18.322Z,13
2018-06-23T06:40:15.607Z,13.3
2018-06-23T06:45:12.700Z,12.8
2018-06-23T06:50:10.180Z,13.1
2018-06-23T06:55:07.330Z,13.1
2018-06-23T07:00:04.742Z,13.6
2018-06-23T07:05:02.194Z,8.7
2018-06-23T07:09:59.400Z,13.4
2018-06-23T07:14:56.554Z,13.4
2018-06-23T07:19:53.863Z,13
2018-06-23T07:24:50.940Z,13.6
2018-06-23T07:29:47.638Z,13.8
2018-06-23T07:34:44.843Z,13.9
2018-06-23T07:39:42.007Z,13.9
2018-06-23T07:44:39.490Z,14.6
2018-06-23T07:49:36.831Z,14.1
2018-06-23T07:54:33.972Z,14.1
2018-06-23T07:59:31.403Z,14.8
2018-06-23T08:04:28.498Z,14.2
2018-06-23T08:09:25.905Z,14.9
2018-06-23T08:14:23.151Z,15
2018-06-23T08:19:20.494Z,14.5
2018-06-23T08:24:17.582Z,14.5
2018-06-23T08:29:15.088Z,15.1
2018-06-23T08:34:12.660Z,15.2
2018-06-23T08:39:10.096Z,15
2018-06-23T08:44:07.475Z,15.4
2018-06-23T08:49:04.840Z,14.9
2018-06-23T08:54:02.701Z,15.6
2018-06-23T08:59:00.130Z,15.6
2018-06-23T09:03:57.218Z,15.1
2018-06-23T09:08:54.537Z,15.2
2018-06-23T09:13:52.310Z,16
2018-06-23T09:18:49.963Z,16.1
2018-06-23T09:23:47.520Z,16.2
2018-06-23T09:28:44.980Z,15.1
2018-06-23T09:33:42.502Z,16.5
2018-06-23T09:38:40.012Z,16.6
2018-06-23T09:43:37.352Z,16.2
2018-06-23T09:48:34.468Z,16.3
2018-06-23T09:53:31.867Z,17
2018-06-23T09:58:29.457Z,16.5
2018-06-23T10:03:26.751Z,16.7
2018-06-23T10:08:24.274Z,17.4
2018-06-23T10:13:21.544Z,17.3
2018-06-23T10:18:18.852Z,16.8
2018-06-23T10:23:16.427Z,16.8
2018-06-23T10:28:13.819Z,17.5
2018-06-23T10:33:11.247Z,17.6
2018-06-23T10:38:08.955Z,16.9
2018-06-23T10:43:06.241Z,17.3
2018-06-23T10:48:03.607Z,17.4
2018-06-23T10:53:00.960Z,18.1
2018-06-23T10:57:58.395Z,17.6
2018-06-23T11:02:55.720Z,17.9
2018-06-23T11:07:53.205Z,18.6
2018-06-23T11:12:50.633Z,18.7
2018-06-23T11:17:47.588Z,18.3
2018-06-23T11:22:44.865Z,18.5
2018-06-23T11:27:42.181Z,19.3
2018-06-23T11:32:39.680Z,19.4
2018-06-23T11:37:37.207Z,19.6
2018-06-23T11:42:34.580Z,19.7
2018-06-23T11:47:32.009Z,19.9
2018-06-23T11:52:29.405Z,20
2018-06-23T11:57:26.867Z,20.2
2018-06-23T12:02:24.325Z,20.4
2018-06-23T12:07:21.958Z,20.5
2018-06-23T12:12:19.224Z,20.7
2018-06-23T12:17:16.656Z,20.9
2018-06-23T12:22:14.143Z,20.5
2018-06-23T12:27:11.890Z,20.7
2018-06-23T12:32:09.428Z,20.6
2018-06-23T12:37:06.501Z,21.6
2018-06-23T12:42:04.069Z,21.5
2018-06-23T12:47:01.579Z,21
2018-06-23T12:51:59.422Z,21.1
2018-06-23T12:56:57.357Z,21.7
2018-06-23T13:01:54.740Z,21.7
2018-06-23T13:06:52.201Z,22.2
2018-06-23T13:11:50.088Z,22.5
2018-06-23T13:16:48.264Z,24.1
2018-06-23T13:21:46.190Z,24.2
2018-06-23T13:26:43.635Z,23.9
2018-06-23T13:31:41.089Z,22.5
2018-06-23T13:36:38.247Z,23
2018-06-23T13:41:35.682Z,22.8
2018-06-23T13:46:33.119Z,22.6
2018-06-23T13:51:30.441Z,21.9
2018-06-23T13:56:27.778Z,20
2018-06-23T14:01:25.114Z,22.3
2018-06-23T14:06:22.628Z,22.1
2018-06-23T14:11:20.230Z,21.6
2018-06-23T14:16:17.427Z,21.3
2018-06-23T14:21:14.798Z,20.8
2018-06-23T14:26:12.157Z,21.3
2018-06-23T14:31:09.448Z,21.3
2018-06-23T14:36:06.524Z,21.6
2018-06-23T14:41:03.952Z,21.6
2018-06-23T14:46:01.572Z,21.5
2018-06-23T14:50:58.923Z,21.5
2018-06-23T14:55:56.412Z,21.5
2018-06-23T15:00:53.804Z,21.5
2018-06-23T15:05:51.052Z,21.5
2018-06-23T15:10:48.488Z,21
2018-06-23T15:15:45.928Z,21.6
2018-06-23T15:20:43.384Z,21.6
2018-06-23T15:25:40.941Z,21.1
2018-06-23T15:30:38.088Z,21.7
2018-06-23T15:35:35.753Z,21.7
2018-06-23T15:40:33.362Z,21
2018-06-23T15:45:30.731Z,21.7
2018-06-23T15:50:28.049Z,21.7
2018-06-23T15:55:25.947Z,21.5
2018-06-23T16:00:23.254Z,21.5
2018-06-23T16:05:20.618Z,21.4
2018-06-23T16:10:17.343Z,20.4
2018-06-23T16:15:14.515Z,20.8
2018-06-23T16:20:11.751Z,20.7
2018-06-23T16:25:09.142Z,20.1
2018-06-23T16:30:06.261Z,20.4
2018-06-23T16:35:03.504Z,20.3
2018-06-23T16:40:01.503Z,20.2
2018-06-23T16:44:59.168Z,20.1
2018-06-23T16:49:56.365Z,20
2018-06-23T16:54:54.182Z,19.9
2018-06-23T16:59:57.398Z,19.1
2018-06-23T17:04:53.538Z,19.5
2018-06-23T17:09:50.744Z,19.6
2018-06-23T17:14:47.676Z,19.5
2018-06-23T17:19:44.804Z,19.1
2018-06-23T17:24:42.174Z,18.7
2018-06-23T17:29:39.609Z,19
2018-06-23T17:34:43.093Z,19.3
2018-06-23T17:39:38.886Z,18.6
2018-06-23T17:44:36.060Z,19
2018-06-23T17:49:33.328Z,19
2018-06-23T17:54:30.493Z,18.9
2018-06-23T17:59:27.708Z,18.9
2018-06-23T18:04:25.014Z,18.8
2018-06-23T18:09:23.950Z,18.7
2018-06-23T18:14:20.366Z,15.8
2018-06-23T18:19:17.641Z,18.6
2018-06-23T18:24:15.365Z,18.5
2018-06-23T18:29:12.554Z,17.8
2018-06-23T18:34:09.664Z,17.8
2018-06-23T18:39:06.947Z,17.7
2018-06-23T18:44:04.300Z,18.3
2018-06-23T18:49:01.741Z,17.6
2018-06-23T18:53:59.356Z,17.5
2018-06-23T18:58:56.501Z,17.5
2018-06-23T19:03:53.758Z,17.4
2018-06-23T19:08:51.043Z,17.3
2018-06-23T19:13:48.302Z,17.3
2018-06-23T19:18:45.299Z,17.9
2018-06-23T19:23:42.694Z,17.3
2018-06-23T19:28:39.996Z,17.2
2018-06-23T19:33:37.329Z,17.2
2018-06-23T19:38:34.714Z,16.9
2018-06-23T19:43:32.132Z,17.7
2018-06-23T19:48:29.176Z,17.1
2018-06-23T19:53:26.775Z,16.7
2018-06-23T19:58:24.010Z,16.4
2018-06-23T20:03:21.544Z,17
2018-06-23T20:08:18.828Z,17.5
2018-06-23T20:13:16.080Z,17.5
2018-06-23T20:18:13.330Z,16.9
2018-06-23T20:23:10.652Z,17.4
2018-06-23T20:28:08.137Z,16.7
2018-06-23T20:33:05.443Z,16.7
2018-06-23T20:38:02.571Z,16.6
2018-06-23T20:42:59.932Z,17.2
2018-06-23T20:47:57.398Z,17.2
2018-06-23T20:52:54.482Z,16.6
2018-06-23T20:57:51.552Z,16.5
2018-06-23T21:02:48.632Z,17.1
2018-06-23T21:07:45.797Z,16.4
2018-06-23T21:12:43.399Z,16.3
2018-06-23T21:17:40.842Z,16.3
2018-06-23T21:22:38.161Z,16.3
2018-06-23T21:27:35.586Z,16.8
2018-06-23T21:32:33.243Z,16.1
2018-06-23T21:37:29.320Z,16.1
2018-06-23T21:42:26.970Z,16.1
2018-06-23T21:47:23.981Z,16.6
2018-06-23T21:52:21.400Z,16
2018-06-23T21:57:18.580Z,15.9
2018-06-23T22:02:16.026Z,16
2018-06-23T22:07:13.244Z,15.9
2018-06-23T22:12:16.846Z,16.5
2018-06-23T22:17:12.981Z,16.5
2018-06-23T22:22:10.434Z,16.4
2018-06-23T22:27:07.615Z,15.9
2018-06-23T22:32:04.437Z,15.9
2018-06-23T22:37:02.000Z,15.3
2018-06-23T22:41:59.288Z,16.5
2018-06-23T22:46:56.795Z,16.5
2018-06-23T22:51:54.387Z,16.4
2018-06-23T22:56:51.923Z,15.7
2018-06-23T23:01:49.557Z,16.3
2018-06-23T23:06:46.813Z,15.7
2018-06-23T23:11:44.290Z,11.6
2018-06-23T23:16:47.880Z,15.7
2018-06-23T23:21:43.864Z,15.6
2018-06-23T23:26:40.980Z,15.6
2018-06-23T23:31:38.353Z,15.6
2018-06-23T23:36:35.594Z,16.1
2018-06-23T23:41:32.945Z,15.5
2018-06-23T23:46:30.354Z,15.4
2018-06-23T23:51:27.845Z,15.5
2018-06-23T23:56:25.404Z,15.4
